createdAt,value
2022-12-18T00:07:52.270Z,100.30
2022-12-18T00:17:56.091Z,103.10
2022-12-18T00:28:01.148Z,106.00
2022-12-18T00:38:04.843Z,102.30
2022-12-18T00:48:09.906Z,101.53
2022-12-18T00:58:16.138Z,103.87
2022-12-18T01:08:21.287Z,101.53
2022-12-18T01:18:24.941Z,107.80
2022-12-18T01:28:30.216Z,107.37
2022-12-18T01:38:34.029Z,103.73
2022-12-18T01:48:39.691Z,103.53
2022-12-18T01:58:52.969Z,101.00
2022-12-18T02:09:08.826Z,104.43
2022-12-18T02:19:36.077Z,103.33
2022-12-18T02:29:46.654Z,105.67
2022-12-18T02:39:52.412Z,100.50
2022-12-18T02:50:12.565Z,108.93
2022-12-18T03:00:21.552Z,101.97
2022-12-18T03:10:32.083Z,104.03
2022-12-18T03:20:39.019Z,103.20
2022-12-18T03:30:48.740Z,104.30
2022-12-18T03:41:02.254Z,102.47
2022-12-18T03:51:18.573Z,103.97
2022-12-18T04:01:28.971Z,109.30
2022-12-18T04:11:35.424Z,99.67
2022-12-18T04:21:41.025Z,104.40
2022-12-18T04:31:48.289Z,102.17
2022-12-18T04:41:53.442Z,100.73
2022-12-18T04:51:58.746Z,103.37
2022-12-18T05:02:02.451Z,102.13
2022-12-18T05:12:08.376Z,103.27
2022-12-18T05:22:12.513Z,98.30
2022-12-18T05:32:17.766Z,104.83
2022-12-18T05:42:21.637Z,104.03
2022-12-18T05:52:27.003Z,103.73
2022-12-18T06:02:31.007Z,104.83
2022-12-18T06:12:36.945Z,109.63
2022-12-18T06:22:43.575Z,100.53
2022-12-18T06:32:54.669Z,103.03
2022-12-18T06:43:00.310Z,111.10
2022-12-18T06:53:05.473Z,102.93
2022-12-18T07:03:11.689Z,106.77
2022-12-18T07:13:17.236Z,112.03
2022-12-18T07:23:20.883Z,115.30
2022-12-18T07:33:26.035Z,123.93
2022-12-18T07:43:30.452Z,117.70
2022-12-18T07:53:36.540Z,105.67
2022-12-18T08:03:42.904Z,112.17
2022-12-18T08:13:48.375Z,108.00
2022-12-18T08:23:56.791Z,110.83
2022-12-18T08:34:02.056Z,110.40
2022-12-18T08:44:38.340Z,113.17
2022-12-18T08:54:43.507Z,122.63
2022-12-18T09:04:55.464Z,111.20
2022-12-18T09:15:02.409Z,114.43
2022-12-18T09:25:08.955Z,110.07
2022-12-18T09:35:15.635Z,116.03
2022-12-18T09:45:20.596Z,107.97
2022-12-18T09:55:36.895Z,105.73
2022-12-18T10:05:55.447Z,110.13
2022-12-18T10:16:13.601Z,110.40
2022-12-18T10:26:17.729Z,115.73
2022-12-18T10:36:24.941Z,115.87
2022-12-18T10:46:29.520Z,119.07
2022-12-18T10:56:38.182Z,131.13
2022-12-18T11:07:00.995Z,131.20
2022-12-18T11:17:25.447Z,137.30
2022-12-18T11:27:32.400Z,132.77
2022-12-18T11:37:38.798Z,132.07
2022-12-18T11:47:48.661Z,139.37
2022-12-18T11:58:04.225Z,143.63
2022-12-18T12:08:17.749Z,124.83
2022-12-18T12:18:38.670Z,124.53
2022-12-18T12:29:20.974Z,140.07
2022-12-18T12:39:33.723Z,138.63
2022-12-18T12:49:40.581Z,139.27
2022-12-18T13:00:01.381Z,137.40
2022-12-18T13:10:33.382Z,134.80
2022-12-18T13:20:41.417Z,135.10
2022-12-18T13:30:53.743Z,133.87
2022-12-18T13:41:03.198Z,125.60
2022-12-18T13:51:11.378Z,136.13
2022-12-18T14:01:27.224Z,128.77
2022-12-18T14:11:32.702Z,123.23
2022-12-18T14:21:40.373Z,125.37
2022-12-18T14:31:43.909Z,118.03
2022-12-18T14:41:51.900Z,107.97
2022-12-18T14:52:04.437Z,99.57
2022-12-18T15:02:25.271Z,108.33
2022-12-18T15:12:38.779Z,111.67
2022-12-18T15:22:44.622Z,105.87
2022-12-18T15:32:49.970Z,114.90
2022-12-18T15:43:29.704Z,109.77
2022-12-18T15:53:35.581Z,96.27
2022-12-18T16:03:41.199Z,99.60
2022-12-18T16:13:45.077Z,113.40
2022-12-18T16:23:51.002Z,89.50
2022-12-18T16:34:13.680Z,93.13
2022-12-18T16:44:19.060Z,90.87
2022-12-18T16:54:22.780Z,94.00
2022-12-18T17:04:28.186Z,91.93
2022-12-18T17:14:33.087Z,94.13
2022-12-18T17:24:38.234Z,90.80
2022-12-18T17:34:42.246Z,96.23
2022-12-18T17:44:47.381Z,104.33
2022-12-18T17:54:51.133Z,104.00
2022-12-18T18:04:56.184Z,121.07
2022-12-18T18:14:59.943Z,93.83
2022-12-18T18:25:11.606Z,101.67
2022-12-18T18:35:30.960Z,117.87
2022-12-18T18:45:40.328Z,132.63
2022-12-18T18:55:51.697Z,126.00
2022-12-18T19:06:05.445Z,105.70
2022-12-18T19:16:10.834Z,129.50
2022-12-18T19:26:27.368Z,111.80
2022-12-18T19:36:33.460Z,108.13
2022-12-18T19:46:41.881Z,117.23
2022-12-18T19:56:48.739Z,124.03
2022-12-18T20:06:55.576Z,114.43
2022-12-18T20:16:59.270Z,121.23
2022-12-18T20:27:09.772Z,103.57
2022-12-18T20:37:17.193Z,115.77
2022-12-18T20:47:24.462Z,116.93
2022-12-18T20:57:28.468Z,109.00
2022-12-18T21:07:33.741Z,101.37
2022-12-18T21:17:44.678Z,108.30
2022-12-18T21:27:50.232Z,113.80
2022-12-18T21:37:54.077Z,103.93
2022-12-18T21:47:59.203Z,104.97
2022-12-18T21:58:02.971Z,107.33
2022-12-18T22:08:08.276Z,102.70
2022-12-18T22:18:13.581Z,102.27
2022-12-18T22:28:36.182Z,116.37
2022-12-18T22:38:40.007Z,110.87
2022-12-18T22:48:45.736Z,108.93
2022-12-18T22:58:50.339Z,107.63
2022-12-18T23:08:57.503Z,101.67
2022-12-18T23:19:01.220Z,108.83
2022-12-18T23:29:06.837Z,98.87
2022-12-18T23:39:17.471Z,105.23
2022-12-18T23:49:35.305Z,101.23
2022-12-18T23:59:39.481Z,100.17
